sensor_id;sensor_type;location;lat;lon;timestamp;P1;durP1;ratioP1;P2;durP2;ratioP2
56868;SDS011;42754;0.000;0.000;2022-07-29T00:02:09;2.28;;;1.13;;
56868;SDS011;42754;0.000;0.000;2022-07-29T00:04:35;3.67;;;1.30;;
56868;SDS011;42754;0.000;0.000;2022-07-29T00:07:02;3.65;;;1.15;;
56868;SDS011;42754;0.000;0.000;2022-07-29T00:09:29;5.28;;;1.15;;
56868;SDS011;42754;0.000;0.000;2022-07-29T00:11:56;1.83;;;0.98;;
56868;SDS011;42754;0.000;0.000;2022-07-29T00:14:26;4.38;;;1.30;;
56868;SDS011;42754;0.000;0.000;2022-07-29T00:16:52;3.78;;;1.05;;
56868;SDS011;42754;0.000;0.000;2022-07-29T00:19:17;1.65;;;1.27;;
56868;SDS011;42754;0.000;0.000;2022-07-29T00:21:43;3.00;;;1.30;;
56868;SDS011;42754;0.000;0.000;2022-07-29T00:24:08;2.08;;;1.15;;
56868;SDS011;42754;0.000;0.000;2022-07-29T00:26:34;3.42;;;1.13;;
56868;SDS011;42754;0.000;0.000;2022-07-29T00:29:00;3.83;;;1.23;;
56868;SDS011;42754;0.000;0.000;2022-07-29T00:31:26;2.08;;;1.10;;
56868;SDS011;42754;0.000;0.000;2022-07-29T00:33:52;6.90;;;1.35;;
56868;SDS011;42754;0.000;0.000;2022-07-29T00:36:18;3.83;;;1.30;;
56868;SDS011;42754;0.000;0.000;2022-07-29T00:38:49;1.45;;;1.25;;
56868;SDS011;42754;0.000;0.000;2022-07-29T00:41:15;4.68;;;1.30;;
56868;SDS011;42754;0.000;0.000;2022-07-29T00:43:43;7.30;;;1.30;;
56868;SDS011;42754;0.000;0.000;2022-07-29T00:46:09;3.53;;;1.55;;
56868;SDS011;42754;0.000;0.000;2022-07-29T00:48:35;2.33;;;1.08;;
56868;SDS011;42754;0.000;0.000;2022-07-29T00:51:01;1.70;;;1.08;;
56868;SDS011;42754;0.000;0.000;2022-07-29T00:53:29;2.80;;;1.10;;
56868;SDS011;42754;0.000;0.000;2022-07-29T00:55:55;2.85;;;1.00;;
56868;SDS011;42754;0.000;0.000;2022-07-29T00:58:23;4.22;;;1.23;;
56868;SDS011;42754;0.000;0.000;2022-07-29T01:00:49;3.08;;;1.50;;
56868;SDS011;42754;0.000;0.000;2022-07-29T01:03:15;2.03;;;1.48;;
56868;SDS011;42754;0.000;0.000;2022-07-29T01:05:41;4.10;;;1.50;;
56868;SDS011;42754;0.000;0.000;2022-07-29T01:08:07;3.60;;;2.13;;
56868;SDS011;42754;0.000;0.000;2022-07-29T01:10:35;4.43;;;2.20;;
56868;SDS011;42754;0.000;0.000;2022-07-29T01:13:02;3.30;;;2.22;;
56868;SDS011;42754;0.000;0.000;2022-07-29T01:15:28;3.92;;;1.95;;
56868;SDS011;42754;0.000;0.000;2022-07-29T01:26:06;6.90;;;2.10;;
56868;SDS011;42754;0.000;0.000;2022-07-29T01:28:56;1.95;;;1.58;;
56868;SDS011;42754;0.000;0.000;2022-07-29T01:33:58;2.17;;;1.55;;
56868;SDS011;42754;0.000;0.000;2022-07-29T01:36:33;3.28;;;1.20;;
56868;SDS011;42754;0.000;0.000;2022-07-29T01:47:40;4.38;;;1.73;;
56868;SDS011;42754;0.000;0.000;2022-07-29T01:50:12;5.30;;;1.75;;
56868;SDS011;42754;0.000;0.000;2022-07-29T01:52:46;3.90;;;1.90;;
56868;SDS011;42754;0.000;0.000;2022-07-29T01:55:22;4.75;;;1.40;;
56868;SDS011;42754;0.000;0.000;2022-07-29T01:57:50;2.13;;;1.42;;
56868;SDS011;42754;0.000;0.000;2022-07-29T02:00:16;3.45;;;1.63;;
56868;SDS011;42754;0.000;0.000;2022-07-29T02:02:43;2.45;;;1.73;;
56868;SDS011;42754;0.000;0.000;2022-07-29T02:05:12;3.00;;;1.48;;
56868;SDS011;42754;0.000;0.000;2022-07-29T02:07:43;4.30;;;1.50;;
56868;SDS011;42754;0.000;0.000;2022-07-29T02:12:37;5.03;;;1.70;;
56868;SDS011;42754;0.000;0.000;2022-07-29T02:15:04;4.65;;;1.55;;
56868;SDS011;42754;0.000;0.000;2022-07-29T02:17:37;11.25;;;2.17;;
56868;SDS011;42754;0.000;0.000;2022-07-29T02:20:08;7.63;;;1.75;;
56868;SDS011;42754;0.000;0.000;2022-07-29T02:22:35;4.50;;;1.60;;
56868;SDS011;42754;0.000;0.000;2022-07-29T02:25:02;4.80;;;1.95;;
56868;SDS011;42754;0.000;0.000;2022-07-29T02:27:30;2.33;;;1.75;;
56868;SDS011;42754;0.000;0.000;2022-07-29T02:29:59;4.15;;;1.98;;
56868;SDS011;42754;0.000;0.000;2022-07-29T02:32:27;9.15;;;2.45;;
56868;SDS011;42754;0.000;0.000;2022-07-29T02:34:55;1.77;;;1.48;;
56868;SDS011;42754;0.000;0.000;2022-07-29T02:37:23;3.38;;;1.67;;
56868;SDS011;42754;0.000;0.000;2022-07-29T02:39:51;3.05;;;1.60;;
56868;SDS011;42754;0.000;0.000;2022-07-29T02:42:18;2.58;;;1.90;;
56868;SDS011;42754;0.000;0.000;2022-07-29T02:44:46;4.43;;;1.63;;
56868;SDS011;42754;0.000;0.000;2022-07-29T02:49:42;3.22;;;1.50;;
56868;SDS011;42754;0.000;0.000;2022-07-29T02:57:49;3.30;;;2.33;;
56868;SDS011;42754;0.000;0.000;2022-07-29T03:00:23;5.00;;;2.08;;
56868;SDS011;42754;0.000;0.000;2022-07-29T03:02:52;6.47;;;2.08;;
56868;SDS011;42754;0.000;0.000;2022-07-29T03:05:21;5.57;;;2.10;;
56868;SDS011;42754;0.000;0.000;2022-07-29T03:07:52;4.53;;;1.80;;
56868;SDS011;42754;0.000;0.000;2022-07-29T03:10:20;3.25;;;1.88;;
56868;SDS011;42754;0.000;0.000;2022-07-29T03:12:47;5.03;;;1.90;;
56868;SDS011;42754;0.000;0.000;2022-07-29T03:15:13;8.57;;;1.88;;
56868;SDS011;42754;0.000;0.000;2022-07-29T03:17:39;5.57;;;1.80;;
56868;SDS011;42754;0.000;0.000;2022-07-29T03:20:07;3.97;;;1.77;;
56868;SDS011;42754;0.000;0.000;2022-07-29T03:22:38;3.22;;;1.80;;
56868;SDS011;42754;0.000;0.000;2022-07-29T03:25:08;4.57;;;2.45;;
56868;SDS011;42754;0.000;0.000;2022-07-29T03:27:36;3.95;;;2.65;;
56868;SDS011;42754;0.000;0.000;2022-07-29T03:30:02;5.07;;;2.33;;
56868;SDS011;42754;0.000;0.000;2022-07-29T03:32:29;6.45;;;2.88;;
56868;SDS011;42754;0.000;0.000;2022-07-29T03:34:54;5.85;;;2.78;;
56868;SDS011;42754;0.000;0.000;2022-07-29T03:37:20;5.57;;;2.50;;
56868;SDS011;42754;0.000;0.000;2022-07-29T03:39:45;3.60;;;2.65;;
56868;SDS011;42754;0.000;0.000;2022-07-29T03:42:13;9.75;;;4.00;;
56868;SDS011;42754;0.000;0.000;2022-07-29T03:44:41;3.78;;;3.03;;
56868;SDS011;42754;0.000;0.000;2022-07-29T03:47:09;5.95;;;2.85;;
56868;SDS011;42754;0.000;0.000;2022-07-29T03:49:37;6.47;;;2.72;;
56868;SDS011;42754;0.000;0.000;2022-07-29T03:52:05;3.45;;;2.67;;
56868;SDS011;42754;0.000;0.000;2022-07-29T03:54:32;6.95;;;2.60;;
56868;SDS011;42754;0.000;0.000;2022-07-29T03:56:59;8.90;;;3.03;;
56868;SDS011;42754;0.000;0.000;2022-07-29T03:59:26;3.80;;;2.88;;
56868;SDS011;42754;0.000;0.000;2022-07-29T04:01:53;4.07;;;2.70;;
56868;SDS011;42754;0.000;0.000;2022-07-29T04:04:20;5.47;;;2.90;;
56868;SDS011;42754;0.000;0.000;2022-07-29T04:06:46;4.40;;;2.60;;
56868;SDS011;42754;0.000;0.000;2022-07-29T04:09:14;4.22;;;2.67;;
56868;SDS011;42754;0.000;0.000;2022-07-29T04:11:40;7.18;;;3.60;;
56868;SDS011;42754;0.000;0.000;2022-07-29T04:14:06;3.33;;;2.60;;
56868;SDS011;42754;0.000;0.000;2022-07-29T04:16:32;4.45;;;2.78;;
56868;SDS011;42754;0.000;0.000;2022-07-29T04:18:58;6.15;;;3.10;;
56868;SDS011;42754;0.000;0.000;2022-07-29T04:21:24;3.13;;;2.45;;
56868;SDS011;42754;0.000;0.000;2022-07-29T04:23:50;6.10;;;2.72;;
56868;SDS011;42754;0.000;0.000;2022-07-29T04:26:17;6.07;;;2.95;;
56868;SDS011;42754;0.000;0.000;2022-07-29T04:28:44;9.85;;;2.95;;
56868;SDS011;42754;0.000;0.000;2022-07-29T04:31:12;4.55;;;2.83;;
56868;SDS011;42754;0.000;0.000;2022-07-29T04:33:38;5.35;;;2.95;;
56868;SDS011;42754;0.000;0.000;2022-07-29T04:36:04;4.75;;;2.75;;
56868;SDS011;42754;0.000;0.000;2022-07-29T04:38:30;8.80;;;2.92;;
56868;SDS011;42754;0.000;0.000;2022-07-29T04:40:56;4.57;;;3.00;;
56868;SDS011;42754;0.000;0.000;2022-07-29T04:43:21;6.05;;;2.80;;
56868;SDS011;42754;0.000;0.000;2022-07-29T04:45:47;7.75;;;3.67;;
56868;SDS011;42754;0.000;0.000;2022-07-29T04:48:12;4.78;;;3.05;;
56868;SDS011;42754;0.000;0.000;2022-07-29T04:50:39;3.80;;;2.53;;
56868;SDS011;42754;0.000;0.000;2022-07-29T04:53:05;4.22;;;2.42;;
56868;SDS011;42754;0.000;0.000;2022-07-29T04:55:37;3.13;;;2.55;;
56868;SDS011;42754;0.000;0.000;2022-07-29T04:58:03;4.78;;;2.45;;
56868;SDS011;42754;0.000;0.000;2022-07-29T05:00:29;4.95;;;2.95;;
56868;SDS011;42754;0.000;0.000;2022-07-29T05:02:55;6.15;;;2.67;;
56868;SDS011;42754;0.000;0.000;2022-07-29T05:05:21;3.92;;;2.40;;
56868;SDS011;42754;0.000;0.000;2022-07-29T05:07:47;8.85;;;2.72;;
56868;SDS011;42754;0.000;0.000;2022-07-29T05:15:11;7.15;;;2.80;;
56868;SDS011;42754;0.000;0.000;2022-07-29T05:17:36;4.25;;;2.78;;
56868;SDS011;42754;0.000;0.000;2022-07-29T05:20:02;5.88;;;3.30;;
56868;SDS011;42754;0.000;0.000;2022-07-29T05:22:29;7.82;;;3.47;;
56868;SDS011;42754;0.000;0.000;2022-07-29T05:24:54;4.68;;;2.40;;
56868;SDS011;42754;0.000;0.000;2022-07-29T05:27:20;7.65;;;2.42;;
56868;SDS011;42754;0.000;0.000;2022-07-29T05:29:46;4.25;;;2.40;;
56868;SDS011;42754;0.000;0.000;2022-07-29T05:32:14;4.72;;;2.20;;
56868;SDS011;42754;0.000;0.000;2022-07-29T05:34:40;5.03;;;2.45;;
56868;SDS011;42754;0.000;0.000;2022-07-29T05:37:06;6.82;;;2.92;;
56868;SDS011;42754;0.000;0.000;2022-07-29T05:39:33;5.13;;;2.30;;
56868;SDS011;42754;0.000;0.000;2022-07-29T05:41:58;4.30;;;2.35;;
56868;SDS011;42754;0.000;0.000;2022-07-29T05:44:24;4.82;;;3.20;;
56868;SDS011;42754;0.000;0.000;2022-07-29T05:46:49;5.45;;;3.00;;
56868;SDS011;42754;0.000;0.000;2022-07-29T05:49:15;5.75;;;3.53;;
56868;SDS011;42754;0.000;0.000;2022-07-29T05:51:41;8.90;;;2.95;;
56868;SDS011;42754;0.000;0.000;2022-07-29T05:54:06;8.90;;;3.17;;
56868;SDS011;42754;0.000;0.000;2022-07-29T05:56:32;5.90;;;3.03;;
56868;SDS011;42754;0.000;0.000;2022-07-29T05:58:57;6.60;;;2.63;;
56868;SDS011;42754;0.000;0.000;2022-07-29T06:01:23;5.15;;;2.97;;
56868;SDS011;42754;0.000;0.000;2022-07-29T06:03:49;9.30;;;2.95;;
56868;SDS011;42754;0.000;0.000;2022-07-29T06:06:15;5.50;;;3.22;;
56868;SDS011;42754;0.000;0.000;2022-07-29T06:08:40;5.05;;;2.38;;
56868;SDS011;42754;0.000;0.000;2022-07-29T06:11:06;3.97;;;3.10;;
56868;SDS011;42754;0.000;0.000;2022-07-29T06:13:33;6.07;;;2.78;;
56868;SDS011;42754;0.000;0.000;2022-07-29T06:15:59;3.78;;;2.40;;
56868;SDS011;42754;0.000;0.000;2022-07-29T06:18:24;6.70;;;2.63;;
56868;SDS011;42754;0.000;0.000;2022-07-29T06:20:50;5.38;;;2.65;;
56868;SDS011;42754;0.000;0.000;2022-07-29T06:23:17;3.40;;;2.42;;
56868;SDS011;42754;0.000;0.000;2022-07-29T06:25:44;4.72;;;2.55;;
56868;SDS011;42754;0.000;0.000;2022-07-29T06:28:10;8.38;;;2.60;;
56868;SDS011;42754;0.000;0.000;2022-07-29T06:30:36;6.25;;;2.65;;
56868;SDS011;42754;0.000;0.000;2022-07-29T06:33:02;4.55;;;2.17;;
56868;SDS011;42754;0.000;0.000;2022-07-29T06:35:28;5.55;;;2.55;;
56868;SDS011;42754;0.000;0.000;2022-07-29T06:37:53;6.93;;;2.92;;
56868;SDS011;42754;0.000;0.000;2022-07-29T06:40:19;3.40;;;2.35;;
56868;SDS011;42754;0.000;0.000;2022-07-29T06:43:03;3.15;;;2.30;;
56868;SDS011;42754;0.000;0.000;2022-07-29T06:45:29;5.32;;;2.22;;
56868;SDS011;42754;0.000;0.000;2022-07-29T06:47:55;4.68;;;2.50;;
56868;SDS011;42754;0.000;0.000;2022-07-29T06:50:20;4.68;;;2.45;;
56868;SDS011;42754;0.000;0.000;2022-07-29T06:52:46;7.53;;;2.47;;
56868;SDS011;42754;0.000;0.000;2022-07-29T06:55:13;5.22;;;2.80;;
56868;SDS011;42754;0.000;0.000;2022-07-29T06:57:39;6.93;;;2.42;;
56868;SDS011;42754;0.000;0.000;2022-07-29T07:00:05;2.97;;;2.55;;
56868;SDS011;42754;0.000;0.000;2022-07-29T07:02:32;3.75;;;2.10;;
56868;SDS011;42754;0.000;0.000;2022-07-29T07:04:58;5.10;;;2.53;;
56868;SDS011;42754;0.000;0.000;2022-07-29T07:07:24;4.88;;;3.05;;
56868;SDS011;42754;0.000;0.000;2022-07-29T07:09:49;4.18;;;2.28;;
56868;SDS011;42754;0.000;0.000;2022-07-29T07:12:15;5.45;;;2.50;;
56868;SDS011;42754;0.000;0.000;2022-07-29T07:14:41;9.30;;;2.45;;
56868;SDS011;42754;0.000;0.000;2022-07-29T07:17:07;4.30;;;2.92;;
56868;SDS011;42754;0.000;0.000;2022-07-29T07:19:32;3.30;;;2.78;;
56868;SDS011;42754;0.000;0.000;2022-07-29T07:21:58;3.47;;;2.53;;
56868;SDS011;42754;0.000;0.000;2022-07-29T07:24:24;4.57;;;2.72;;
56868;SDS011;42754;0.000;0.000;2022-07-29T07:26:50;6.20;;;3.03;;
56868;SDS011;42754;0.000;0.000;2022-07-29T07:29:16;2.97;;;2.50;;
56868;SDS011;42754;0.000;0.000;2022-07-29T07:31:41;6.05;;;2.53;;
56868;SDS011;42754;0.000;0.000;2022-07-29T07:34:08;5.15;;;2.60;;
56868;SDS011;42754;0.000;0.000;2022-07-29T07:36:34;6.15;;;2.70;;
56868;SDS011;42754;0.000;0.000;2022-07-29T07:38:59;5.85;;;2.95;;
56868;SDS011;42754;0.000;0.000;2022-07-29T07:41:25;5.78;;;3.30;;
56868;SDS011;42754;0.000;0.000;2022-07-29T07:43:51;4.15;;;2.78;;
56868;SDS011;42754;0.000;0.000;2022-07-29T07:46:17;7.30;;;2.40;;
56868;SDS011;42754;0.000;0.000;2022-07-29T07:48:42;4.70;;;2.65;;
56868;SDS011;42754;0.000;0.000;2022-07-29T07:51:08;7.88;;;3.17;;
56868;SDS011;42754;0.000;0.000;2022-07-29T07:53:34;4.93;;;2.67;;
56868;SDS011;42754;0.000;0.000;2022-07-29T07:56:00;2.90;;;2.55;;
56868;SDS011;42754;0.000;0.000;2022-07-29T07:58:25;4.18;;;2.67;;
56868;SDS011;42754;0.000;0.000;2022-07-29T08:00:51;6.40;;;2.80;;
56868;SDS011;42754;0.000;0.000;2022-07-29T08:03:17;5.68;;;2.65;;
56868;SDS011;42754;0.000;0.000;2022-07-29T08:05:42;7.32;;;2.55;;
56868;SDS011;42754;0.000;0.000;2022-07-29T08:08:09;4.00;;;2.47;;
56868;SDS011;42754;0.000;0.000;2022-07-29T08:10:35;4.95;;;2.60;;
56868;SDS011;42754;0.000;0.000;2022-07-29T08:13:20;8.93;;;2.72;;
56868;SDS011;42754;0.000;0.000;2022-07-29T08:15:48;4.78;;;2.88;;
56868;SDS011;42754;0.000;0.000;2022-07-29T08:18:27;5.80;;;2.47;;
56868;SDS011;42754;0.000;0.000;2022-07-29T08:20:54;4.90;;;2.55;;
56868;SDS011;42754;0.000;0.000;2022-07-29T08:23:20;4.30;;;2.42;;
56868;SDS011;42754;0.000;0.000;2022-07-29T08:25:47;4.38;;;2.72;;
56868;SDS011;42754;0.000;0.000;2022-07-29T08:28:13;3.85;;;2.65;;
56868;SDS011;42754;0.000;0.000;2022-07-29T08:30:39;6.53;;;2.97;;
56868;SDS011;42754;0.000;0.000;2022-07-29T08:33:05;5.53;;;2.95;;
56868;SDS011;42754;0.000;0.000;2022-07-29T08:35:30;6.55;;;3.70;;
56868;SDS011;42754;0.000;0.000;2022-07-29T08:37:56;5.88;;;3.33;;
56868;SDS011;42754;0.000;0.000;2022-07-29T08:40:22;4.57;;;2.72;;
56868;SDS011;42754;0.000;0.000;2022-07-29T08:42:49;7.00;;;3.45;;
56868;SDS011;42754;0.000;0.000;2022-07-29T08:45:15;9.25;;;3.30;;
56868;SDS011;42754;0.000;0.000;2022-07-29T08:47:40;5.80;;;3.15;;
56868;SDS011;42754;0.000;0.000;2022-07-29T08:50:08;8.73;;;3.10;;
56868;SDS011;42754;0.000;0.000;2022-07-29T08:52:39;4.47;;;2.60;;
56868;SDS011;42754;0.000;0.000;2022-07-29T08:55:06;6.77;;;3.80;;
56868;SDS011;42754;0.000;0.000;2022-07-29T08:57:33;6.72;;;3.30;;
56868;SDS011;42754;0.000;0.000;2022-07-29T09:00:00;6.68;;;4.45;;
56868;SDS011;42754;0.000;0.000;2022-07-29T09:02:28;6.50;;;3.20;;
56868;SDS011;42754;0.000;0.000;2022-07-29T09:04:57;7.55;;;3.42;;
56868;SDS011;42754;0.000;0.000;2022-07-29T09:07:26;3.42;;;3.08;;
56868;SDS011;42754;0.000;0.000;2022-07-29T09:09:52;5.90;;;2.95;;
56868;SDS011;42754;0.000;0.000;2022-07-29T09:12:18;6.40;;;3.50;;
56868;SDS011;42754;0.000;0.000;2022-07-29T09:14:44;7.18;;;3.88;;
56868;SDS011;42754;0.000;0.000;2022-07-29T09:17:09;9.68;;;3.55;;
56868;SDS011;42754;0.000;0.000;2022-07-29T09:19:36;8.07;;;3.90;;
56868;SDS011;42754;0.000;0.000;2022-07-29T09:22:06;7.40;;;3.70;;
56868;SDS011;42754;0.000;0.000;2022-07-29T09:27:19;8.52;;;3.30;;
56868;SDS011;42754;0.000;0.000;2022-07-29T09:29:47;12.18;;;3.83;;
56868;SDS011;42754;0.000;0.000;2022-07-29T09:32:54;6.55;;;3.40;;
56868;SDS011;42754;0.000;0.000;2022-07-29T09:35:22;7.15;;;3.28;;
56868;SDS011;42754;0.000;0.000;2022-07-29T09:37:49;9.07;;;3.25;;
56868;SDS011;42754;0.000;0.000;2022-07-29T09:40:20;5.85;;;3.20;;
56868;SDS011;42754;0.000;0.000;2022-07-29T09:42:46;4.95;;;2.78;;
56868;SDS011;42754;0.000;0.000;2022-07-29T09:45:13;4.82;;;3.60;;
56868;SDS011;42754;0.000;0.000;2022-07-29T09:47:54;4.70;;;2.72;;
56868;SDS011;42754;0.000;0.000;2022-07-29T09:50:23;7.95;;;3.00;;
56868;SDS011;42754;0.000;0.000;2022-07-29T09:53:00;6.30;;;3.80;;
56868;SDS011;42754;0.000;0.000;2022-07-29T09:55:25;6.88;;;3.38;;
56868;SDS011;42754;0.000;0.000;2022-07-29T09:57:51;8.77;;;2.90;;
56868;SDS011;42754;0.000;0.000;2022-07-29T10:00:19;5.05;;;2.90;;
56868;SDS011;42754;0.000;0.000;2022-07-29T10:02:46;5.50;;;2.97;;
56868;SDS011;42754;0.000;0.000;2022-07-29T10:05:16;5.65;;;3.20;;
56868;SDS011;42754;0.000;0.000;2022-07-29T10:07:43;4.85;;;3.00;;
56868;SDS011;42754;0.000;0.000;2022-07-29T10:10:26;7.68;;;3.08;;
56868;SDS011;42754;0.000;0.000;2022-07-29T10:13:01;7.10;;;3.40;;
56868;SDS011;42754;0.000;0.000;2022-07-29T10:15:33;4.35;;;2.83;;
56868;SDS011;42754;0.000;0.000;2022-07-29T10:18:05;5.82;;;3.55;;
56868;SDS011;42754;0.000;0.000;2022-07-29T10:20:34;10.38;;;4.40;;
56868;SDS011;42754;0.000;0.000;2022-07-29T10:23:00;9.40;;;4.07;;
56868;SDS011;42754;0.000;0.000;2022-07-29T10:25:26;6.07;;;3.75;;
56868;SDS011;42754;0.000;0.000;2022-07-29T10:27:52;6.05;;;3.60;;
56868;SDS011;42754;0.000;0.000;2022-07-29T10:30:20;4.90;;;3.80;;
56868;SDS011;42754;0.000;0.000;2022-07-29T10:35:29;4.90;;;3.58;;
56868;SDS011;42754;0.000;0.000;2022-07-29T10:40:44;7.03;;;3.58;;
56868;SDS011;42754;0.000;0.000;2022-07-29T10:43:36;7.40;;;3.40;;
56868;SDS011;42754;0.000;0.000;2022-07-29T10:46:06;8.25;;;3.95;;
56868;SDS011;42754;0.000;0.000;2022-07-29T10:48:32;8.65;;;3.13;;
56868;SDS011;42754;0.000;0.000;2022-07-29T10:53:47;7.60;;;3.58;;
56868;SDS011;42754;0.000;0.000;2022-07-29T10:56:24;7.47;;;3.25;;
56868;SDS011;42754;0.000;0.000;2022-07-29T10:59:24;5.85;;;3.42;;
56868;SDS011;42754;0.000;0.000;2022-07-29T11:04:08;5.45;;;3.35;;
56868;SDS011;42754;0.000;0.000;2022-07-29T11:09:41;7.55;;;2.67;;
56868;SDS011;42754;0.000;0.000;2022-07-29T11:15:13;4.03;;;3.00;;
56868;SDS011;42754;0.000;0.000;2022-07-29T11:28:43;6.25;;;2.42;;
56868;SDS011;42754;0.000;0.000;2022-07-29T11:31:38;6.95;;;2.15;;
56868;SDS011;42754;0.000;0.000;2022-07-29T11:39:45;2.83;;;1.90;;
56868;SDS011;42754;0.000;0.000;2022-07-29T11:47:26;2.95;;;2.20;;
56868;SDS011;42754;0.000;0.000;2022-07-29T11:49:53;5.22;;;2.35;;
56868;SDS011;42754;0.000;0.000;2022-07-29T11:52:46;4.93;;;1.95;;
56868;SDS011;42754;0.000;0.000;2022-07-29T11:55:13;4.30;;;2.17;;
56868;SDS011;42754;0.000;0.000;2022-07-29T12:00:25;2.53;;;1.92;;
56868;SDS011;42754;0.000;0.000;2022-07-29T12:02:55;3.55;;;1.50;;
56868;SDS011;42754;0.000;0.000;2022-07-29T12:05:30;5.70;;;1.88;;
56868;SDS011;42754;0.000;0.000;2022-07-29T12:08:07;5.97;;;1.63;;
56868;SDS011;42754;0.000;0.000;2022-07-29T12:10:35;3.88;;;1.80;;
56868;SDS011;42754;0.000;0.000;2022-07-29T12:13:01;4.80;;;1.55;;
56868;SDS011;42754;0.000;0.000;2022-07-29T12:15:27;4.53;;;2.10;;
56868;SDS011;42754;0.000;0.000;2022-07-29T12:17:53;3.67;;;1.67;;
56868;SDS011;42754;0.000;0.000;2022-07-29T12:20:24;2.47;;;2.03;;
56868;SDS011;42754;0.000;0.000;2022-07-29T12:22:51;4.93;;;1.90;;
56868;SDS011;42754;0.000;0.000;2022-07-29T12:25:20;6.38;;;2.00;;
56868;SDS011;42754;0.000;0.000;2022-07-29T12:27:47;3.95;;;2.00;;
56868;SDS011;42754;0.000;0.000;2022-07-29T12:30:23;4.68;;;1.85;;
56868;SDS011;42754;0.000;0.000;2022-07-29T12:33:11;4.05;;;2.20;;
56868;SDS011;42754;0.000;0.000;2022-07-29T12:35:37;7.13;;;1.90;;
56868;SDS011;42754;0.000;0.000;2022-07-29T12:38:03;3.70;;;1.60;;
56868;SDS011;42754;0.000;0.000;2022-07-29T12:40:29;4.55;;;1.55;;
56868;SDS011;42754;0.000;0.000;2022-07-29T12:43:05;4.40;;;1.83;;
56868;SDS011;42754;0.000;0.000;2022-07-29T12:45:31;1.95;;;1.38;;
56868;SDS011;42754;0.000;0.000;2022-07-29T12:47:57;3.35;;;1.92;;
56868;SDS011;42754;0.000;0.000;2022-07-29T12:50:23;4.43;;;1.75;;
56868;SDS011;42754;0.000;0.000;2022-07-29T12:52:50;4.65;;;1.60;;
56868;SDS011;42754;0.000;0.000;2022-07-29T12:55:15;2.50;;;1.60;;
56868;SDS011;42754;0.000;0.000;2022-07-29T12:58:01;1.67;;;1.17;;
56868;SDS011;42754;0.000;0.000;2022-07-29T13:00:26;2.38;;;1.20;;
56868;SDS011;42754;0.000;0.000;2022-07-29T13:02:56;4.18;;;1.80;;
56868;SDS011;42754;0.000;0.000;2022-07-29T13:05:24;2.33;;;1.65;;
56868;SDS011;42754;0.000;0.000;2022-07-29T13:08:10;6.82;;;1.50;;
56868;SDS011;42754;0.000;0.000;2022-07-29T13:10:40;2.90;;;1.45;;
56868;SDS011;42754;0.000;0.000;2022-07-29T13:13:07;2.92;;;0.90;;
56868;SDS011;42754;0.000;0.000;2022-07-29T13:15:43;3.07;;;1.17;;
56868;SDS011;42754;0.000;0.000;2022-07-29T13:18:34;7.78;;;1.58;;
56868;SDS011;42754;0.000;0.000;2022-07-29T13:21:11;2.22;;;1.45;;
56868;SDS011;42754;0.000;0.000;2022-07-29T13:23:38;7.05;;;1.50;;
56868;SDS011;42754;0.000;0.000;2022-07-29T13:26:05;6.88;;;1.60;;
56868;SDS011;42754;0.000;0.000;2022-07-29T13:28:32;2.17;;;1.52;;
56868;SDS011;42754;0.000;0.000;2022-07-29T13:30:57;6.40;;;1.77;;
56868;SDS011;42754;0.000;0.000;2022-07-29T13:33:23;3.75;;;2.25;;
56868;SDS011;42754;0.000;0.000;2022-07-29T13:35:49;4.13;;;1.30;;
56868;SDS011;42754;0.000;0.000;2022-07-29T13:38:14;6.38;;;1.40;;
56868;SDS011;42754;0.000;0.000;2022-07-29T13:40:40;6.03;;;1.42;;
56868;SDS011;42754;0.000;0.000;2022-07-29T13:43:10;3.58;;;1.30;;
56868;SDS011;42754;0.000;0.000;2022-07-29T13:45:36;4.15;;;1.40;;
56868;SDS011;42754;0.000;0.000;2022-07-29T13:48:02;3.00;;;1.65;;
56868;SDS011;42754;0.000;0.000;2022-07-29T13:50:28;2.30;;;1.17;;
56868;SDS011;42754;0.000;0.000;2022-07-29T13:52:55;7.82;;;1.58;;
56868;SDS011;42754;0.000;0.000;2022-07-29T13:55:21;9.27;;;1.70;;
56868;SDS011;42754;0.000;0.000;2022-07-29T13:57:48;3.30;;;1.30;;
56868;SDS011;42754;0.000;0.000;2022-07-29T14:00:13;6.70;;;2.03;;
56868;SDS011;42754;0.000;0.000;2022-07-29T14:02:47;3.03;;;1.10;;
56868;SDS011;42754;0.000;0.000;2022-07-29T14:05:12;3.33;;;1.50;;
56868;SDS011;42754;0.000;0.000;2022-07-29T14:07:39;4.10;;;1.80;;
56868;SDS011;42754;0.000;0.000;2022-07-29T14:10:05;2.72;;;1.27;;
56868;SDS011;42754;0.000;0.000;2022-07-29T14:12:32;3.78;;;1.50;;
56868;SDS011;42754;0.000;0.000;2022-07-29T14:14:58;2.45;;;1.10;;
56868;SDS011;42754;0.000;0.000;2022-07-29T14:17:23;4.65;;;1.30;;
56868;SDS011;42754;0.000;0.000;2022-07-29T14:19:49;4.68;;;1.70;;
56868;SDS011;42754;0.000;0.000;2022-07-29T14:22:15;2.97;;;1.50;;
56868;SDS011;42754;0.000;0.000;2022-07-29T14:24:43;2.10;;;1.33;;
56868;SDS011;42754;0.000;0.000;2022-07-29T14:27:09;3.03;;;1.00;;
56868;SDS011;42754;0.000;0.000;2022-07-29T14:29:35;3.95;;;1.17;;
56868;SDS011;42754;0.000;0.000;2022-07-29T14:32:01;2.85;;;1.15;;
56868;SDS011;42754;0.000;0.000;2022-07-29T14:34:27;5.20;;;1.10;;
56868;SDS011;42754;0.000;0.000;2022-07-29T14:36:54;3.78;;;1.45;;
56868;SDS011;42754;0.000;0.000;2022-07-29T14:39:20;3.38;;;1.48;;
56868;SDS011;42754;0.000;0.000;2022-07-29T14:41:48;2.72;;;1.27;;
56868;SDS011;42754;0.000;0.000;2022-07-29T14:44:14;2.75;;;1.15;;
56868;SDS011;42754;0.000;0.000;2022-07-29T14:46:40;2.70;;;1.20;;
56868;SDS011;42754;0.000;0.000;2022-07-29T14:49:05;2.63;;;1.20;;
56868;SDS011;42754;0.000;0.000;2022-07-29T14:51:31;3.50;;;1.27;;
56868;SDS011;42754;0.000;0.000;2022-07-29T14:53:57;3.17;;;1.40;;
56868;SDS011;42754;0.000;0.000;2022-07-29T14:56:23;3.85;;;1.35;;
56868;SDS011;42754;0.000;0.000;2022-07-29T14:58:48;7.47;;;1.80;;
56868;SDS011;42754;0.000;0.000;2022-07-29T15:01:14;2.70;;;1.42;;
56868;SDS011;42754;0.000;0.000;2022-07-29T15:03:39;5.53;;;1.55;;
56868;SDS011;42754;0.000;0.000;2022-07-29T15:06:05;5.97;;;1.38;;
56868;SDS011;42754;0.000;0.000;2022-07-29T15:08:31;2.97;;;1.60;;
56868;SDS011;42754;0.000;0.000;2022-07-29T15:10:57;4.05;;;1.70;;
56868;SDS011;42754;0.000;0.000;2022-07-29T15:13:24;6.57;;;1.67;;
56868;SDS011;42754;0.000;0.000;2022-07-29T15:15:52;2.38;;;1.65;;
56868;SDS011;42754;0.000;0.000;2022-07-29T15:18:18;2.85;;;1.48;;
56868;SDS011;42754;0.000;0.000;2022-07-29T15:20:43;5.05;;;1.40;;
56868;SDS011;42754;0.000;0.000;2022-07-29T15:23:11;2.38;;;1.38;;
56868;SDS011;42754;0.000;0.000;2022-07-29T15:25:39;2.78;;;1.50;;
56868;SDS011;42754;0.000;0.000;2022-07-29T15:28:05;4.63;;;1.10;;
56868;SDS011;42754;0.000;0.000;2022-07-29T15:30:34;3.95;;;1.73;;
56868;SDS011;42754;0.000;0.000;2022-07-29T15:33:07;2.47;;;1.30;;
56868;SDS011;42754;0.000;0.000;2022-07-29T15:35:36;3.42;;;1.40;;
56868;SDS011;42754;0.000;0.000;2022-07-29T15:38:02;4.65;;;1.65;;
56868;SDS011;42754;0.000;0.000;2022-07-29T15:40:28;3.35;;;1.48;;
56868;SDS011;42754;0.000;0.000;2022-07-29T15:42:54;3.63;;;1.40;;
56868;SDS011;42754;0.000;0.000;2022-07-29T15:45:19;4.40;;;1.55;;
56868;SDS011;42754;0.000;0.000;2022-07-29T15:47:45;3.20;;;1.50;;
56868;SDS011;42754;0.000;0.000;2022-07-29T15:50:11;3.70;;;1.40;;
56868;SDS011;42754;0.000;0.000;2022-07-29T15:52:40;2.80;;;1.65;;
56868;SDS011;42754;0.000;0.000;2022-07-29T15:55:06;2.63;;;1.25;;
56868;SDS011;42754;0.000;0.000;2022-07-29T15:57:32;5.75;;;1.80;;
56868;SDS011;42754;0.000;0.000;2022-07-29T15:59:58;3.83;;;1.40;;
56868;SDS011;42754;0.000;0.000;2022-07-29T16:02:24;5.60;;;2.20;;
56868;SDS011;42754;0.000;0.000;2022-07-29T16:04:49;4.00;;;1.70;;
56868;SDS011;42754;0.000;0.000;2022-07-29T16:07:15;4.07;;;1.83;;
56868;SDS011;42754;0.000;0.000;2022-07-29T16:09:41;4.03;;;1.48;;
56868;SDS011;42754;0.000;0.000;2022-07-29T16:12:07;4.22;;;1.75;;
56868;SDS011;42754;0.000;0.000;2022-07-29T16:14:34;2.47;;;1.20;;
56868;SDS011;42754;0.000;0.000;2022-07-29T16:16:59;2.63;;;2.08;;
56868;SDS011;42754;0.000;0.000;2022-07-29T16:19:27;2.38;;;1.63;;
56868;SDS011;42754;0.000;0.000;2022-07-29T16:21:53;4.00;;;1.58;;
56868;SDS011;42754;0.000;0.000;2022-07-29T16:24:19;2.55;;;1.80;;